Petah Tiqwa, Israel
Current Conditions -  °F | °C
As of 4:50 PM on Saturday 20 Dec 2014 (Local Time) from LLSD Reporting Station
Light Rain Light Rain  
Wind Chill: 66°   Ceiling: Unl
Heat Index: 66°   Visibility: 6mi
Dew Point: 52°   Wind: 10mph
Humidity: 60%   Direction: 270°W
Pressure: 30.06"   Gusts: NA
Location:  32.09°N, 34.88°E
Report Text: LLSD 201350Z 27009KT 9999 -RA FEW030 SCT045 19/11 Q1018
Loading
Personal Weather Stations






























Interactive Weather Map New forecast layout! Learn more

10-Day Weather Forecast

Advertisements
Track Severe Weather on mobile